Time;durP1;ratioP1;P1;durP2;ratioP2;P2;SDS_P1;SDS_P2;PMS_P1;PMS_P2;Temp;Humidity;BMP_temperature;BMP_pressure;BME280_temperature;BME280_humidity;BME280_pressure;Samples;Min_cycle;Max_cycle;Signal;HPM_P1;HPM_P2
2022/11/11 00:01:03;;;;;;;;;;;8.20;99.90;;;;;;5077908;28;20040;-64
2022/11/11 00:03:29;;;;;;;2.85;0.60;;;8.30;99.90;;;;;;5080371;28;19961;-64
2022/11/11 00:05:59;;;;;;;;;;;8.30;99.90;;;;;;5082446;28;20052;-65
2022/11/11 00:08:25;;;;;;;0.88;0.50;;;8.30;99.90;;;;;;5079236;28;19916;-64
2022/11/11 00:10:50;;;;;;;;;;;8.20;99.90;;;;;;5082766;28;20515;-65
2022/11/11 00:13:16;;;;;;;1.25;0.60;;;8.20;99.90;;;;;;5081146;28;19963;-64
2022/11/11 00:15:42;;;;;;;;;;;8.10;99.90;;;;;;5080924;28;20040;-63
2022/11/11 00:26:27;;;;;;;5.25;0.95;;;8.20;99.90;;;;;;5074633;28;20037;-64
2022/11/11 00:28:53;;;;;;;;;;;8.30;99.90;;;;;;5065532;28;20443;-65
2022/11/11 00:31:19;;;;;;;0.68;0.30;;;8.20;99.90;;;;;;5076073;28;19924;-65
2022/11/11 00:33:44;;;;;;;;;;;8.30;99.90;;;;;;5069609;28;20194;-65
2022/11/11 00:36:10;;;;;;;1.48;0.40;;;8.30;99.90;;;;;;5063465;28;20425;-66
2022/11/11 00:38:44;;;;;;;;;;;8.30;99.90;;;;;;5068318;28;20690;-65
2022/11/11 00:41:14;;;;;;;2.03;0.40;;;8.30;99.90;;;;;;5069516;28;19916;-65
2022/11/11 00:43:40;;;;;;;2.58;0.40;;;8.30;99.90;;;;;;5068250;28;20045;-65
2022/11/11 00:51:34;;;;;;;1.05;0.45;;;8.40;99.90;;;;;;5074982;28;20063;-65
2022/11/11 00:54:00;;;;;;;;;;;8.40;99.90;;;;;;5067457;28;20625;-65
2022/11/11 00:56:26;;;;;;;2.85;0.63;;;8.40;99.90;;;;;;5067226;28;20213;-65
2022/11/11 00:58:52;;;;;;;0.88;0.43;;;8.40;99.90;;;;;;5068408;28;20102;-63
2022/11/11 01:01:18;;;;;;;5.85;0.50;;;8.40;99.90;;;;;;5075933;28;20524;-65
2022/11/11 01:03:43;;;;;;;;;;;8.40;99.90;;;;;;5069221;28;20079;-64
2022/11/11 01:06:11;;;;;;;0.82;0.45;;;8.40;99.90;;;;;;5066969;28;20308;-64
2022/11/11 01:08:37;;;;;;;1.00;0.30;;;8.30;99.90;;;;;;5068230;28;20036;-66
2022/11/11 01:11:02;;;;;;;;;;;8.30;99.90;;;;;;5075023;28;20121;-64
2022/11/11 01:13:32;;;;;;;2.58;0.40;;;8.30;99.90;;;;;;5068764;28;19948;-64
2022/11/11 01:16:03;;;;;;;1.05;0.30;;;8.30;99.90;;;;;;5072125;28;20162;-64
2022/11/11 01:18:29;;;;;;;0.70;0.30;;;8.30;99.90;;;;;;5060587;28;20082;-64
2022/11/11 01:21:07;;;;;;;0.70;0.30;;;8.30;99.90;;;;;;5073848;28;20036;-65
2022/11/11 01:23:35;;;;;;;3.05;0.40;;;8.40;99.90;;;;;;5066268;28;20041;-65
2022/11/11 01:26:04;;;;;;;0.75;0.30;;;8.40;99.90;;;;;;5076292;28;20048;-67
2022/11/11 01:28:31;;;;;;;1.75;0.40;;;8.40;99.90;;;;;;5063827;28;20067;-66
2022/11/11 01:31:05;;;;;;;2.10;0.47;;;8.40;99.90;;;;;;5066240;28;20037;-64
2022/11/11 01:33:31;;;;;;;1.05;0.50;;;8.40;99.90;;;;;;5068250;28;20040;-66
2022/11/11 01:36:01;;;;;;;;;;;8.40;99.90;;;;;;5061927;28;20044;-64
2022/11/11 01:38:27;;;;;;;0.80;0.50;;;8.40;99.90;;;;;;5057774;28;19921;-64
2022/11/11 01:40:52;;;;;;;;;;;8.30;99.90;;;;;;5060627;28;20028;-64
2022/11/11 01:43:22;;;;;;;4.68;0.50;;;8.40;99.90;;;;;;5067771;28;20001;-64
2022/11/11 01:45:51;;;;;;;1.23;0.40;;;8.40;99.90;;;;;;5069479;28;20042;-64
2022/11/11 01:51:39;;;;;;;1.63;0.57;;;8.40;99.90;;;;;;5072031;28;20503;-64
2022/11/11 01:54:10;;;;;;;0.82;0.40;;;8.40;99.90;;;;;;5070493;28;20451;-64
2022/11/11 01:56:38;;;;;;;1.67;0.73;;;8.40;99.90;;;;;;5057820;28;20045;-65
2022/11/11 01:59:10;;;;;;;1.02;0.32;;;8.40;99.90;;;;;;5062676;28;20055;-65
2022/11/11 02:01:36;;;;;;;1.60;0.40;;;8.50;99.90;;;;;;5067815;28;20811;-65
2022/11/11 02:06:53;;;;;;;1.88;0.30;;;8.60;99.90;;;;;;5073061;28;20044;-65
2022/11/11 02:09:21;;;;;;;4.22;0.40;;;8.50;99.90;;;;;;5062388;28;20032;-65
2022/11/11 02:14:41;;;;;;;1.23;0.50;;;8.60;99.90;;;;;;5063159;28;20136;-65
2022/11/11 02:17:13;;;;;;;1.42;0.32;;;8.80;99.90;;;;;;5061737;28;20056;-64
2022/11/11 02:19:48;;;;;;;3.95;0.50;;;8.80;99.90;;;;;;5068074;28;20052;-65
2022/11/11 02:22:32;;;;;;;0.20;0.20;;;8.80;99.90;;;;;;5071972;28;20036;-65
2022/11/11 02:24:59;;;;;;;3.22;0.50;;;9.00;99.90;;;;;;5071461;28;20051;-65
2022/11/11 02:27:27;;;;;;;1.30;0.40;;;8.90;99.90;;;;;;5066054;28;20050;-64
2022/11/11 02:29:56;;;;;;;1.52;0.30;;;8.80;99.90;;;;;;5067306;28;20346;-64
2022/11/11 02:32:22;;;;;;;1.75;0.40;;;8.70;99.90;;;;;;5058969;28;20440;-65
2022/11/11 02:34:48;;;;;;;;;;;8.60;99.90;;;;;;5064923;28;20063;-65
2022/11/11 02:37:17;;;;;;;1.33;0.30;;;8.60;99.90;;;;;;5057888;28;19920;-63
2022/11/11 02:39:48;;;;;;;0.30;0.30;;;8.70;99.90;;;;;;5064109;28;20052;-65
2022/11/11 02:42:16;;;;;;;2.60;0.50;;;8.70;99.90;;;;;;5054522;28;20152;-65
2022/11/11 02:44:42;;;;;;;0.90;0.38;;;8.70;99.90;;;;;;5062944;28;20045;-66
2022/11/11 02:47:08;;;;;;;;;;;8.70;99.90;;;;;;5064902;28;20043;-65
2022/11/11 02:49:33;;;;;;;1.75;0.43;;;8.80;99.90;;;;;;5066764;28;19966;-64
2022/11/11 02:51:59;;;;;;;;;;;8.90;99.90;;;;;;5073791;28;20080;-65
2022/11/11 02:54:24;;;;;;;2.85;0.52;;;8.80;99.90;;;;;;5066555;28;19969;-65
2022/11/11 02:57:08;;;;;;;;;;;8.90;99.90;;;;;;5073177;28;20036;-65
2022/11/11 02:59:39;;;;;;;3.83;0.65;;;8.80;99.90;;;;;;5067302;28;19922;-65
2022/11/11 03:02:06;;;;;;;1.17;0.50;;;8.90;99.90;;;;;;5072067;28;20047;-65
2022/11/11 03:04:32;;;;;;;2.05;0.50;;;8.90;99.90;;;;;;5067475;28;20523;-65
2022/11/11 03:06:58;;;;;;;;;;;8.90;99.90;;;;;;5074281;28;20480;-66
2022/11/11 03:09:24;;;;;;;2.67;0.65;;;8.90;99.90;;;;;;5067273;28;19923;-66
2022/11/11 03:11:49;;;;;;;;;;;8.80;99.90;;;;;;5074416;28;20043;-65
2022/11/11 03:14:15;;;;;;;1.98;0.57;;;8.70;99.90;;;;;;5067654;28;19916;-65
2022/11/11 03:19:25;;;;;;;2.03;0.52;;;8.60;99.90;;;;;;5066765;28;19920;-66
2022/11/11 03:21:50;;;;;;;;;;;8.60;99.90;;;;;;5074103;28;20036;-65
2022/11/11 03:24:16;;;;;;;3.13;0.40;;;8.60;99.90;;;;;;5067313;28;20391;-63
2022/11/11 03:26:42;;;;;;;;;;;8.50;99.90;;;;;;5070549;28;20036;-64
2022/11/11 03:29:07;;;;;;;3.47;0.70;;;8.40;99.90;;;;;;5065969;28;20296;-64
2022/11/11 03:31:33;;;;;;;;;;;8.40;99.90;;;;;;5065267;28;20032;-64
2022/11/11 03:34:17;;;;;;;1.98;0.55;;;8.40;99.90;;;;;;5065696;28;19924;-65
2022/11/11 03:39:30;;;;;;;2.47;0.68;;;8.30;99.90;;;;;;5062731;28;20040;-65
2022/11/11 03:41:56;;;;;;;;;;;8.30;99.90;;;;;;5073100;28;20048;-65
2022/11/11 03:44:22;;;;;;;0.82;0.50;;;8.30;99.90;;;;;;5067202;28;19924;-66
2022/11/11 03:46:47;;;;;;;;;;;8.30;99.90;;;;;;5066876;28;20068;-68
2022/11/11 03:49:13;;;;;;;1.65;0.40;;;8.40;99.90;;;;;;5062934;28;20453;-65
2022/11/11 03:51:39;;;;;;;;;;;8.40;99.90;;;;;;5074853;28;20040;-65
2022/11/11 03:54:05;;;;;;;2.47;0.65;;;8.40;99.90;;;;;;5070404;28;19916;-66
2022/11/11 03:56:30;;;;;;;;;;;8.40;99.90;;;;;;5070337;28;20049;-66
2022/11/11 03:58:56;;;;;;;0.85;0.30;;;8.40;99.90;;;;;;5062125;28;19960;-64
2022/11/11 04:12:21;;;;;;;0.40;0.40;;;8.40;99.90;;;;;;5068038;28;20040;-64
2022/11/11 04:17:32;;;;;;;1.13;0.40;;;8.40;99.90;;;;;;5064802;28;20049;-65
2022/11/11 04:22:42;;;;;;;1.45;0.30;;;8.30;99.90;;;;;;5063115;28;19995;-64
2022/11/11 04:29:27;;;;;;;1.38;0.43;;;8.30;99.90;;;;;;5069250;28;20468;-66
2022/11/11 04:30:42;;;;;;;0.98;0.43;;;8.30;99.90;;;;;;5059499;28;20090;-64
2022/11/11 04:33:08;;;;;;;2.92;0.45;;;8.30;99.90;;;;;;5064485;28;20052;-64
2022/11/11 04:35:34;;;;;;;6.68;1.08;;;8.20;99.90;;;;;;5059261;28;20044;-65
2022/11/11 04:41:02;;;;;;;4.70;0.57;;;8.30;99.90;;;;;;5063158;28;19916;-64
2022/11/11 04:45:26;;;;;;;0.57;0.40;;;8.20;99.90;;;;;;5061009;28;20040;-65
2022/11/11 04:46:17;;;;;;;5.05;0.50;;;8.10;99.90;;;;;;5071030;28;20051;-64
2022/11/11 04:48:43;;;;;;;;;;;8.10;99.90;;;;;;5068613;28;20138;-65
2022/11/11 04:51:08;;;;;;;1.17;0.35;;;8.00;99.90;;;;;;5076699;28;19915;-65
2022/11/11 04:53:34;;;;;;;;;;;8.00;99.90;;;;;;5068718;28;20044;-65
2022/11/11 04:58:45;;;;;;;6.30;0.60;;;7.80;99.90;;;;;;5062883;28;20037;-65
2022/11/11 05:03:14;;;;;;;1.05;0.50;;;7.80;99.90;;;;;;5074769;28;21338;-64
2022/11/11 05:03:56;;;;;;;4.15;0.75;;;7.70;99.90;;;;;;5068174;28;20040;-65
2022/11/11 05:09:08;;;;;;;1.58;0.40;;;7.70;99.90;;;;;;5064988;28;19920;-64
2022/11/11 05:11:35;;;;;;;1.60;0.60;;;7.70;99.90;;;;;;5069532;28;20055;-65
2022/11/11 05:22:27;;;;;;;3.65;0.30;;;7.90;99.90;;;;;;5066706;28;20044;-64
2022/11/11 05:27:37;;;;;;;1.60;0.52;;;7.90;99.90;;;;;;5075326;28;20124;-64
2022/11/11 05:30:05;;;;;;;2.22;0.50;;;7.90;99.90;;;;;;5070200;28;20063;-64
2022/11/11 05:32:31;;;;;;;1.10;0.30;;;7.90;99.90;;;;;;5073747;28;20501;-64
2022/11/11 05:34:56;;;;;;;;;;;7.90;99.90;;;;;;5065870;28;20036;-65
2022/11/11 05:37:22;;;;;;;1.95;0.40;;;7.80;99.90;;;;;;5072418;28;20498;-64
2022/11/11 05:39:48;;;;;;;1.88;0.35;;;7.80;99.90;;;;;;5060012;28;20032;-64
2022/11/11 05:42:14;;;;;;;;;;;7.70;99.90;;;;;;5072789;28;20051;-64
2022/11/11 05:44:40;;;;;;;5.38;0.50;;;7.60;99.90;;;;;;5068286;28;20376;-63
2022/11/11 05:47:05;;;;;;;1.02;0.30;;;7.60;99.90;;;;;;5071047;28;20055;-64
2022/11/11 05:49:31;;;;;;;;;;;7.60;99.90;;;;;;5067635;28;20028;-63
2022/11/11 05:51:58;;;;;;;2.60;0.30;;;7.60;99.90;;;;;;5072518;28;19960;-64
2022/11/11 05:54:23;;;;;;;3.35;0.47;;;7.70;99.90;;;;;;5066106;28;20048;-64
2022/11/11 05:56:49;;;;;;;;;;;7.70;99.90;;;;;;5069409;28;20047;-64
2022/11/11 05:59:15;;;;;;;1.38;0.47;;;7.80;99.90;;;;;;5064702;28;20338;-64
2022/11/11 06:01:41;;;;;;;;;;;7.80;99.90;;;;;;5074247;28;20503;-64
2022/11/11 06:04:07;;;;;;;1.52;0.30;;;7.80;99.90;;;;;;5061189;28;20627;-63
2022/11/11 06:06:34;;;;;;;4.90;0.55;;;7.80;99.90;;;;;;5054847;28;20638;-62
2022/11/11 06:09:00;;;;;;;1.40;0.40;;;7.90;99.90;;;;;;5060901;28;20080;-66
2022/11/11 06:11:26;;;;;;;;;;;7.90;99.90;;;;;;5062653;28;20226;-64
2022/11/11 06:13:53;;;;;;;2.58;0.52;;;8.00;99.90;;;;;;5064904;28;19963;-64
2022/11/11 06:16:19;;;;;;;1.50;0.30;;;8.00;99.90;;;;;;5054180;28;20049;-64
2022/11/11 06:18:45;;;;;;;;;;;8.00;99.90;;;;;;5063064;28;20036;-63
2022/11/11 06:21:11;;;;;;;1.77;0.30;;;8.10;99.90;;;;;;5059601;28;19924;-63
2022/11/11 06:23:37;;;;;;;;;;;8.10;99.90;;;;;;5062450;28;20794;-63
2022/11/11 06:26:13;;;;;;;2.83;0.63;;;8.00;99.90;;;;;;5064785;28;20052;-64
2022/11/11 06:28:51;;;;;;;4.65;0.75;;;7.80;99.90;;;;;;5066645;28;20052;-64
2022/11/11 06:31:20;;;;;;;1.08;0.32;;;7.80;99.90;;;;;;5064595;28;20094;-63
2022/11/11 06:33:45;;;;;;;1.38;0.50;;;7.80;99.90;;;;;;5066516;28;20473;-65
2022/11/11 06:36:12;;;;;;;;;;;7.70;99.90;;;;;;5065461;28;20070;-64
2022/11/11 06:38:39;;;;;;;6.18;1.00;;;7.60;99.90;;;;;;5070242;28;19994;-63
2022/11/11 06:41:05;;;;;;;3.10;0.50;;;7.50;99.90;;;;;;5065218;28;20407;-64
2022/11/11 06:43:31;;;;;;;1.35;0.73;;;7.40;99.90;;;;;;5064708;28;20070;-64
2022/11/11 06:45:57;;;;;;;3.63;0.65;;;7.30;99.90;;;;;;5065679;28;20049;-64
2022/11/11 06:48:23;;;;;;;;;;;7.30;99.90;;;;;;5065920;28;20434;-63
2022/11/11 06:50:49;;;;;;;5.77;0.87;;;7.40;99.90;;;;;;5066133;28;19924;-64
2022/11/11 06:53:18;;;;;;;0.65;0.40;;;7.30;99.90;;;;;;5073715;28;20105;-63
2022/11/11 06:55:44;;;;;;;3.55;0.45;;;7.30;99.90;;;;;;5063246;28;20508;-63
2022/11/11 06:58:15;;;;;;;2.78;0.30;;;7.40;99.90;;;;;;5063567;28;20056;-63
2022/11/11 07:00:41;;;;;;;4.05;0.63;;;7.40;99.90;;;;;;5058272;28;20120;-64
2022/11/11 07:03:10;;;;;;;6.38;0.60;;;7.50;99.90;;;;;;5064469;28;20052;-64
2022/11/11 07:05:35;;;;;;;2.00;0.50;;;7.30;99.90;;;;;;5064615;28;20144;-65
2022/11/11 07:08:05;;;;;;;;;;;7.30;99.90;;;;;;5062718;28;20230;-64
2022/11/11 07:10:33;;;;;;;3.20;0.60;;;7.30;99.90;;;;;;5062701;28;19916;-64
2022/11/11 07:12:59;;;;;;;1.00;0.30;;;7.30;99.90;;;;;;5061982;28;20633;-64
2022/11/11 07:15:25;;;;;;;1.20;0.40;;;7.30;99.90;;;;;;5060962;28;20040;-64
2022/11/11 07:17:51;;;;;;;3.40;0.40;;;7.30;99.90;;;;;;5062514;28;20227;-64
2022/11/11 07:20:16;;;;;;;;;;;7.30;99.90;;;;;;5064261;28;20570;-65
2022/11/11 07:22:42;;;;;;;6.40;0.45;;;7.50;99.90;;;;;;5063545;28;19920;-64
2022/11/11 07:25:08;;;;;;;;;;;7.60;99.90;;;;;;5062637;28;20152;-66
2022/11/11 07:27:38;;;;;;;3.65;0.45;;;7.80;99.90;;;;;;5059284;28;19963;-65
2022/11/11 07:30:05;;;;;;;1.45;0.32;;;7.90;99.90;;;;;;5067551;28;20044;-65
2022/11/11 07:32:31;;;;;;;5.30;0.40;;;7.90;99.90;;;;;;5066697;28;20533;-65
2022/11/11 07:34:57;;;;;;;;;;;7.90;99.90;;;;;;5064299;28;20123;-65
2022/11/11 07:37:23;;;;;;;0.93;0.40;;;7.90;99.90;;;;;;5067468;28;19965;-64
2022/11/11 07:39:48;;;;;;;;;;;7.90;99.90;;;;;;5068717;28;20051;-65
2022/11/11 07:42:14;;;;;;;6.53;0.82;;;8.00;99.90;;;;;;5076495;28;19916;-65
2022/11/11 07:44:40;;;;;;;;;;;8.00;99.90;;;;;;5065084;28;20087;-65
2022/11/11 07:47:06;;;;;;;2.13;0.40;;;7.90;99.90;;;;;;5066709;28;19924;-65
2022/11/11 07:49:32;;;;;;;1.05;0.30;;;7.90;99.90;;;;;;5067600;28;20075;-65
2022/11/11 07:51:58;;;;;;;;;;;8.00;99.90;;;;;;5076065;28;20067;-65
2022/11/11 07:54:23;;;;;;;4.88;0.93;;;8.10;99.90;;;;;;5069148;28;19924;-65
2022/11/11 07:56:49;;;;;;;;;;;8.10;99.90;;;;;;5073885;28;20036;-65
2022/11/11 07:59:15;;;;;;;1.20;0.45;;;8.10;99.90;;;;;;5067198;28;19981;-65
2022/11/11 08:01:40;;;;;;;;;;;8.10;99.90;;;;;;5072384;28;20036;-65
2022/11/11 08:04:06;;;;;;;3.80;0.63;;;8.10;99.90;;;;;;5069270;28;20327;-66
2022/11/11 08:06:32;;;;;;;;;;;8.20;99.90;;;;;;5076552;28;20408;-64
2022/11/11 08:08:57;;;;;;;5.70;0.75;;;8.20;99.90;;;;;;5065858;28;20311;-66
2022/11/11 08:14:07;;;;;;;2.10;0.88;;;8.30;99.90;;;;;;5068258;28;19919;-65
2022/11/11 08:16:33;;;;;;;;;;;8.40;99.90;;;;;;5072327;28;20044;-64
2022/11/11 08:18:58;;;;;;;2.10;1.02;;;8.40;99.90;;;;;;5068624;28;19924;-65
2022/11/11 08:21:24;;;;;;;;;;;8.30;99.90;;;;;;5076568;28;20033;-65
2022/11/11 08:23:50;;;;;;;12.27;2.13;;;8.30;99.90;;;;;;5069393;28;19923;-66
2022/11/11 08:26:16;;;;;;;;;;;8.30;99.90;;;;;;5074382;28;20048;-65
2022/11/11 08:28:42;;;;;;;3.10;0.80;;;8.40;99.90;;;;;;5066882;28;19916;-66
2022/11/11 08:31:08;;;;;;;;;;;8.50;99.90;;;;;;5068591;28;20831;-66
2022/11/11 08:33:35;;;;;;;2.15;0.82;;;8.60;99.90;;;;;;5068911;28;19917;-65
2022/11/11 08:36:01;;;;;;;5.63;1.08;;;8.60;99.90;;;;;;5075602;28;20050;-65
2022/11/11 08:38:27;;;;;;;3.78;1.00;;;8.70;99.90;;;;;;5064927;28;20528;-65
2022/11/11 08:40:53;;;;;;;;;;;8.80;99.90;;;;;;5077538;28;20122;-65
2022/11/11 08:43:19;;;;;;;3.50;1.50;;;8.90;99.90;;;;;;5067091;28;20394;-65
2022/11/11 08:45:45;;;;;;;3.58;1.52;;;9.10;99.90;;;;;;5073492;28;20051;-65
2022/11/11 08:48:11;;;;;;;;;;;9.30;99.90;;;;;;5068441;28;20059;-66
2022/11/11 08:50:40;;;;;;;2.00;1.10;;;9.50;99.90;;;;;;5074302;28;19920;-65
2022/11/11 08:53:07;;;;;;;2.35;0.80;;;9.70;99.90;;;;;;5070762;28;20045;-65
2022/11/11 08:55:37;;;;;;;3.38;1.20;;;9.90;99.90;;;;;;5073914;28;20051;-66
2022/11/11 08:58:06;;;;;;;5.32;2.33;;;10.00;99.90;;;;;;5070404;28;20117;-64
2022/11/11 09:00:33;;;;;;;3.55;1.05;;;10.10;99.90;;;;;;5064993;28;20085;-65
2022/11/11 09:03:04;;;;;;;3.65;1.40;;;10.40;99.90;;;;;;5070819;28;20039;-65
2022/11/11 09:05:30;;;;;;;3.65;1.45;;;10.50;99.90;;;;;;5065269;28;20079;-66
2022/11/11 09:07:59;;;;;;;;;;;10.60;99.90;;;;;;5071210;28;20033;-66
2022/11/11 09:10:24;;;;;;;22.52;7.30;;;10.80;99.90;;;;;;5066779;28;20585;-65
2022/11/11 09:12:54;;;;;;;;;;;10.90;99.90;;;;;;5066352;28;20048;-67
2022/11/11 09:15:19;;;;;;;6.22;1.65;;;11.00;99.90;;;;;;5069144;28;19971;-65
2022/11/11 09:17:46;;;;;;;;;;;11.20;99.90;;;;;;5067983;28;20137;-66
2022/11/11 09:20:11;;;;;;;10.02;2.72;;;11.20;99.90;;;;;;5070677;28;19923;-66
2022/11/11 09:22:44;;;;;;;;;;;11.30;99.90;;;;;;5073939;28;20351;-65
2022/11/11 09:25:09;;;;;;;5.50;1.88;;;11.40;99.90;;;;;;5065101;28;19916;-66
2022/11/11 09:27:35;;;;;;;;;;;11.50;99.90;;;;;;5075580;28;20043;-65
2022/11/11 09:30:01;;;;;;;1.15;0.40;;;11.60;99.40;;;;;;5065898;28;19977;-65
2022/11/11 09:32:26;;;;;;;;;;;11.70;96.60;;;;;;5065563;28;20045;-66
2022/11/11 09:34:54;;;;;;;0.35;0.10;;;11.90;94.40;;;;;;5067921;28;19923;-66
2022/11/11 09:37:20;;;;;;;0.30;0.20;;;12.10;94.10;;;;;;5072684;28;20464;-65
2022/11/11 09:39:46;;;;;;;3.75;0.28;;;12.30;93.50;;;;;;5068323;28;20052;-65
2022/11/11 09:42:30;;;;;;;;;;;12.40;93.70;;;;;;5074971;28;20050;-65
2022/11/11 09:45:14;;;;;;;1.35;0.20;;;12.70;91.70;;;;;;5067451;28;19924;-65
2022/11/11 09:48:13;;;;;;;1.55;0.40;;;12.80;92.50;;;;;;5062168;28;20048;-65
2022/11/11 09:50:47;;;;;;;1.90;0.70;;;13.00;90.60;;;;;;5065650;28;20036;-66
2022/11/11 09:53:16;;;;;;;2.40;0.30;;;13.10;92.20;;;;;;5069487;28;20044;-65
2022/11/11 09:56:22;;;;;;;1.65;0.10;;;13.10;91.40;;;;;;5071443;28;20039;-66
2022/11/11 09:59:05;;;;;;;0.20;0.10;;;13.20;91.30;;;;;;4994956;28;20048;-66
2022/11/11 10:02:00;;;;;;;0.10;0.10;;;13.40;90.20;;;;;;4994897;28;20042;-66
2022/11/11 10:04:46;;;;;;;1.17;0.30;;;13.50;89.60;;;;;;5038893;28;20453;-65
2022/11/11 10:07:20;;;;;;;0.90;0.25;;;13.70;89.80;;;;;;5077892;28;20157;-66
2022/11/11 10:09:57;;;;;;;0.65;0.20;;;13.80;89.40;;;;;;5063269;28;20123;-66
2022/11/11 10:12:30;;;;;;;0.88;0.20;;;13.80;87.40;;;;;;5072063;28;20055;-65
2022/11/11 10:14:56;;;;;;;0.22;0.20;;;13.90;86.10;;;;;;5071543;28;20036;-65
2022/11/11 10:17:37;;;;;;;;;;;14.00;86.80;;;;;;5069484;28;20118;-63
2022/11/11 10:20:08;;;;;;;0.57;0.20;;;14.00;84.40;;;;;;5064989;28;19998;-64
2022/11/11 10:22:35;;;;;;;0.90;0.20;;;14.10;84.50;;;;;;5070360;28;20111;-63
2022/11/11 10:25:15;;;;;;;0.20;0.20;;;14.20;85.50;;;;;;5067885;28;20610;-64
2022/11/11 10:27:46;;;;;;;0.40;0.28;;;14.20;83.10;;;;;;5071993;28;20102;-65
2022/11/11 10:30:26;;;;;;;1.08;0.10;;;14.20;83.60;;;;;;5069270;28;20060;-65
2022/11/11 10:33:03;;;;;;;0.88;0.28;;;14.20;85.80;;;;;;5070654;28;20120;-64
2022/11/11 10:35:31;;;;;;;0.90;0.20;;;14.20;83.20;;;;;;5069154;28;20040;-64
2022/11/11 10:38:09;;;;;;;0.65;0.20;;;14.20;84.00;;;;;;5059969;28;20068;-66
2022/11/11 10:40:59;;;;;;;0.80;0.20;;;14.30;82.40;;;;;;5060709;28;20059;-65
2022/11/11 10:43:27;;;;;;;0.30;0.20;;;14.30;82.00;;;;;;5054780;28;20704;-65
2022/11/11 10:46:28;;;;;;;1.00;0.20;;;14.30;80.00;;;;;;5069604;28;20677;-65
2022/11/11 10:48:57;;;;;;;0.98;0.20;;;14.40;81.30;;;;;;5062013;28;20040;-65
2022/11/11 10:51:26;;;;;;;0.57;0.13;;;14.50;80.30;;;;;;5073614;28;20051;-66
2022/11/11 10:54:21;;;;;;;0.10;0.10;;;14.60;80.40;;;;;;5066259;28;20494;-66
2022/11/11 10:57:09;;;;;;;0.40;0.30;;;14.60;78.30;;;;;;5062173;28;20072;-65
2022/11/11 10:59:41;;;;;;;0.82;0.20;;;14.70;76.90;;;;;;5065575;28;20115;-65
2022/11/11 11:02:29;;;;;;;0.43;0.20;;;14.70;77.00;;;;;;5063155;28;20557;-66
2022/11/11 11:04:59;;;;;;;1.45;0.20;;;14.70;78.20;;;;;;5063854;28;20111;-64
2022/11/11 11:07:32;;;;;;;0.75;0.20;;;14.70;79.30;;;;;;5059666;28;20048;-65
2022/11/11 11:10:07;;;;;;;0.35;0.20;;;14.80;76.70;;;;;;5062915;28;20041;-65
2022/11/11 11:12:47;;;;;;;0.68;0.20;;;14.90;78.00;;;;;;5066545;28;20500;-65
2022/11/11 11:15:26;;;;;;;0.20;0.10;;;15.00;78.60;;;;;;5068681;28;20040;-65
2022/11/11 11:18:00;;;;;;;0.55;0.15;;;15.00;74.40;;;;;;5065725;28;20132;-64
2022/11/11 11:20:26;;;;;;;0.80;0.20;;;15.00;77.10;;;;;;5069998;28;20054;-65
2022/11/11 11:22:54;;;;;;;;;;;15.10;76.70;;;;;;5070913;28;20033;-65
2022/11/11 11:25:21;;;;;;;0.60;0.30;;;15.10;76.00;;;;;;5067518;28;20323;-64
2022/11/11 11:27:50;;;;;;;0.32;0.10;;;15.10;78.40;;;;;;5068625;28;20040;-65
2022/11/11 11:30:24;;;;;;;0.20;0.20;;;15.10;76.50;;;;;;5068302;28;20490;-66
2022/11/11 11:33:01;;;;;;;0.50;0.20;;;15.10;76.20;;;;;;5062482;28;20041;-65
2022/11/11 11:35:42;;;;;;;3.67;0.38;;;15.20;77.40;;;;;;5063173;28;20086;-65
2022/11/11 11:38:11;;;;;;;0.47;0.13;;;15.20;77.30;;;;;;5062943;28;20039;-65
2022/11/11 11:40:48;;;;;;;0.60;0.30;;;15.20;74.90;;;;;;5067314;28;20044;-65
2022/11/11 11:43:23;;;;;;;1.02;0.30;;;15.30;76.20;;;;;;5054759;28;20045;-65
2022/11/11 11:46:00;;;;;;;0.20;0.10;;;15.30;77.90;;;;;;5065637;28;20036;-65
2022/11/11 11:48:50;;;;;;;0.30;0.20;;;15.40;77.20;;;;;;5065052;28;20054;-65
2022/11/11 11:51:27;;;;;;;0.30;0.20;;;15.40;74.20;;;;;;5067156;28;20036;-64
2022/11/11 11:54:03;;;;;;;0.88;0.20;;;15.30;76.00;;;;;;5069462;28;20037;-65
2022/11/11 11:56:45;;;;;;;1.73;0.30;;;15.20;75.70;;;;;;5065593;28;20559;-65
2022/11/11 11:59:21;;;;;;;0.30;0.20;;;15.20;78.10;;;;;;5064983;28;20044;-64
2022/11/11 12:01:59;;;;;;;1.98;0.17;;;15.20;77.40;;;;;;5074314;28;20085;-65
2022/11/11 12:04:30;;;;;;;0.32;0.20;;;15.20;78.10;;;;;;5068060;28;20420;-65
2022/11/11 12:07:17;;;;;;;1.67;0.22;;;15.10;77.00;;;;;;5069332;28;20048;-65
2022/11/11 12:10:04;;;;;;;0.80;0.30;;;15.10;77.40;;;;;;5064654;28;20046;-65
2022/11/11 12:12:50;;;;;;;0.55;0.20;;;15.10;77.10;;;;;;5069089;28;20041;-66
2022/11/11 12:15:54;;;;;;;0.40;0.20;;;15.10;76.50;;;;;;5069214;28;20043;-64
2022/11/11 12:18:59;;;;;;;0.20;0.20;;;15.10;77.70;;;;;;5067916;28;20127;-65
2022/11/11 12:21:41;;;;;;;0.40;0.20;;;15.20;78.80;;;;;;5071845;28;20116;-66
2022/11/11 12:24:27;;;;;;;3.25;0.60;;;15.20;78.00;;;;;;5068327;28;20409;-65
2022/11/11 12:27:08;;;;;;;0.65;0.30;;;15.20;79.10;;;;;;5076267;28;20054;-65
2022/11/11 12:29:37;;;;;;;0.30;0.20;;;15.10;77.70;;;;;;5069067;28;20084;-65
2022/11/11 12:32:15;;;;;;;0.30;0.20;;;15.10;79.30;;;;;;5083221;28;20040;-65
2022/11/11 12:35:18;;;;;;;0.22;0.20;;;15.10;78.90;;;;;;5069661;28;20047;-66
2022/11/11 12:38:02;;;;;;;0.55;0.22;;;15.10;80.40;;;;;;5063646;28;20044;-65
2022/11/11 12:40:42;;;;;;;0.20;0.20;;;15.10;81.80;;;;;;5073457;28;20048;-65
2022/11/11 12:43:08;;;;;;;1.13;0.20;;;15.00;79.20;;;;;;5071181;28;20049;-65
2022/11/11 12:45:46;;;;;;;;;;;15.00;77.50;;;;;;5071454;28;20565;-65
2022/11/11 12:48:30;;;;;;;0.50;0.10;;;15.00;76.80;;;;;;5065577;28;20338;-65
2022/11/11 12:51:24;;;;;;;2.88;0.20;;;15.00;77.90;;;;;;5072104;28;20094;-63
2022/11/11 12:54:03;;;;;;;2.47;0.30;;;15.00;78.20;;;;;;5054431;28;20076;-63
2022/11/11 12:56:49;;;;;;;0.52;0.20;;;15.00;77.10;;;;;;5060661;28;20053;-64
2022/11/11 12:59:38;;;;;;;0.80;0.30;;;15.00;76.70;;;;;;5068225;28;20492;-65
2022/11/11 13:02:50;;;;;;;0.10;0.10;;;14.90;75.60;;;;;;5075095;28;20047;-66
2022/11/11 13:05:32;;;;;;;0.82;0.10;;;14.90;75.00;;;;;;5059197;28;20037;-65
2022/11/11 13:08:11;;;;;;;2.67;0.30;;;14.90;76.50;;;;;;5063582;28;20515;-65
2022/11/11 13:10:55;;;;;;;1.73;0.20;;;14.90;75.30;;;;;;5066844;28;20484;-65
2022/11/11 13:13:46;;;;;;;0.95;0.28;;;14.90;76.30;;;;;;5071975;28;20065;-65
2022/11/11 13:16:11;;;;;;;5.85;0.30;;;14.90;75.30;;;;;;5073129;28;20626;-64
2022/11/11 13:18:40;;;;;;;;;;;14.90;76.40;;;;;;5068208;28;20565;-65
2022/11/11 13:21:10;;;;;;;7.10;0.28;;;14.90;78.90;;;;;;5076507;28;20002;-65
2022/11/11 13:23:35;;;;;;;1.45;0.50;;;14.80;85.60;;;;;;5068676;28;20123;-65
2022/11/11 13:26:03;;;;;;;;;;;14.50;83.20;;;;;;5074793;28;20119;-64
2022/11/11 13:28:36;;;;;;;1.50;0.45;;;14.60;78.10;;;;;;5063781;28;20383;-66
2022/11/11 13:31:10;;;;;;;0.70;0.50;;;14.60;77.80;;;;;;5059269;28;20772;-64
2022/11/11 13:33:44;;;;;;;0.90;0.22;;;14.60;79.70;;;;;;5067055;28;20093;-64
2022/11/11 13:36:15;;;;;;;0.40;0.20;;;14.50;79.50;;;;;;5073541;28;20067;-66
2022/11/11 13:38:51;;;;;;;1.13;0.50;;;14.50;81.40;;;;;;5063988;28;20045;-65
2022/11/11 13:41:27;;;;;;;10.13;4.78;;;14.50;84.30;;;;;;5073997;28;20492;-65
2022/11/11 13:43:56;;;;;;;1.63;0.77;;;14.40;81.80;;;;;;5065784;28;20047;-65
2022/11/11 13:46:33;;;;;;;1.73;0.80;;;14.40;77.80;;;;;;5062651;28;20048;-63
2022/11/11 13:49:01;;;;;;;0.93;0.40;;;14.40;80.60;;;;;;5061081;28;20037;-64
2022/11/11 13:51:42;;;;;;;12.55;1.10;;;14.40;76.90;;;;;;5063653;28;20079;-63
2022/11/11 13:54:20;;;;;;;3.75;0.20;;;14.40;77.40;;;;;;5065037;28;20550;-60
2022/11/11 13:56:47;;;;;;;1.80;0.82;;;14.30;81.80;;;;;;5054567;28;20044;-63
2022/11/11 13:59:25;;;;;;;1.58;0.38;;;14.20;78.40;;;;;;5064790;28;20045;-63
2022/11/11 14:02:19;;;;;;;0.70;0.30;;;14.10;76.60;;;;;;5063971;28;20081;-63
2022/11/11 14:05:11;;;;;;;0.30;0.10;;;14.10;76.50;;;;;;5064183;28;20032;-65
2022/11/11 14:07:43;;;;;;;3.30;0.30;;;14.00;84.40;;;;;;5049143;28;20056;-66
2022/11/11 14:10:30;;;;;;;0.68;0.10;;;14.00;83.00;;;;;;5064054;28;20116;-69
2022/11/11 14:13:20;;;;;;;0.35;0.20;;;13.90;83.80;;;;;;5064689;28;20070;-66
2022/11/11 14:15:48;;;;;;;0.82;0.25;;;13.70;83.80;;;;;;5063775;28;20043;-66
2022/11/11 14:18:17;;;;;;;1.17;0.40;;;13.60;84.50;;;;;;5063777;28;20119;-65
2022/11/11 14:20:45;;;;;;;0.57;0.40;;;13.50;84.60;;;;;;5067958;28;20086;-67
2022/11/11 14:23:17;;;;;;;6.90;0.40;;;13.40;85.30;;;;;;5067139;28;20515;-67
2022/11/11 14:25:48;;;;;;;1.38;0.35;;;13.30;85.30;;;;;;5073105;28;20040;-66
2022/11/11 14:28:26;;;;;;;0.80;0.20;;;13.20;85.50;;;;;;5067566;28;20074;-66
2022/11/11 14:30:52;;;;;;;2.60;0.20;;;13.10;86.00;;;;;;5066605;28;20131;-66
2022/11/11 14:33:47;;;;;;;0.20;0.20;;;13.00;86.70;;;;;;5077246;28;20635;-65
2022/11/11 14:36:43;;;;;;;1.95;0.40;;;13.00;87.00;;;;;;5075006;28;20067;-65
2022/11/11 14:39:17;;;;;;;0.45;0.30;;;12.90;87.60;;;;;;5069664;28;20554;-66
2022/11/11 14:41:47;;;;;;;0.82;0.20;;;12.80;87.00;;;;;;5074343;28;20043;-66